createdAt,value
2018-07-08T02:42:56.133Z,11.40
2018-07-08T02:45:25.337Z,11.47
2018-07-08T02:47:54.695Z,10.77
2018-07-08T02:50:23.786Z,10.53
2018-07-08T02:52:53.063Z,10.33
2018-07-08T02:55:22.379Z,10.60
2018-07-08T02:57:51.437Z,10.83
2018-07-08T03:00:20.649Z,12.47
2018-07-08T03:02:49.783Z,11.37
2018-07-08T03:05:18.536Z,10.40
2018-07-08T03:07:47.781Z,10.40
2018-07-08T03:10:16.689Z,10.43
2018-07-08T03:12:45.888Z,11.07
2018-07-08T03:15:15.223Z,10.00
2018-07-08T03:17:44.213Z,8.77
2018-07-08T03:20:13.378Z,9.13
2018-07-08T03:22:42.451Z,8.43
2018-07-08T03:25:11.491Z,8.70
2018-07-08T03:27:40.815Z,9.47
2018-07-08T03:30:09.955Z,10.27
2018-07-08T03:32:39.210Z,9.90
2018-07-08T03:35:08.580Z,13.93
2018-07-08T03:37:37.737Z,8.67
2018-07-08T03:40:06.997Z,9.97
2018-07-08T03:42:36.264Z,10.47
2018-07-08T03:45:05.560Z,10.90
2018-07-08T03:47:34.547Z,13.20
2018-07-08T03:50:03.892Z,10.30
2018-07-08T03:52:33.163Z,11.47
2018-07-08T03:55:02.370Z,13.67
2018-07-08T03:57:31.485Z,10.47
2018-07-08T04:00:00.680Z,10.73
2018-07-08T04:02:29.470Z,10.57
2018-07-08T04:04:58.714Z,9.63
2018-07-08T04:07:27.794Z,9.57
2018-07-08T04:09:56.894Z,8.77
2018-07-08T04:12:26.107Z,10.10
2018-07-08T04:14:55.302Z,8.93
2018-07-08T04:17:24.433Z,9.20
2018-07-08T04:19:55.583Z,10.13
2018-07-08T04:22:24.456Z,10.33
2018-07-08T04:24:53.721Z,12.03
2018-07-08T04:27:22.804Z,13.97
2018-07-08T04:29:51.754Z,12.33
2018-07-08T04:32:21.046Z,10.33
2018-07-08T04:34:50.158Z,11.53
2018-07-08T04:37:18.969Z,11.90
2018-07-08T04:39:48.078Z,12.20
2018-07-08T04:42:17.416Z,13.50
2018-07-08T04:44:46.369Z,12.17
2018-07-08T04:47:15.674Z,13.43
2018-07-08T04:49:44.831Z,13.20
2018-07-08T04:52:13.959Z,12.60
2018-07-08T04:54:43.206Z,12.93
2018-07-08T04:57:12.198Z,13.50
2018-07-08T04:59:40.993Z,12.70
2018-07-08T05:02:10.137Z,12.63
2018-07-08T05:04:39.415Z,12.40
2018-07-08T05:07:08.718Z,12.07
2018-07-08T05:09:37.979Z,11.63
2018-07-08T05:12:06.818Z,12.00
2018-07-08T05:14:35.799Z,11.97
2018-07-08T05:17:05.160Z,12.67
2018-07-08T05:19:34.295Z,15.20
2018-07-08T05:22:03.426Z,13.17
2018-07-08T05:24:32.904Z,15.20
2018-07-08T05:27:02.267Z,14.70
2018-07-08T05:29:31.975Z,15.20
2018-07-08T05:32:01.484Z,14.70
2018-07-08T05:34:30.505Z,15.83
2018-07-08T05:36:59.701Z,14.73
2018-07-08T05:39:28.778Z,13.87
2018-07-08T05:41:57.958Z,14.43
2018-07-08T05:44:27.104Z,14.27
2018-07-08T05:46:56.259Z,14.63
2018-07-08T05:49:25.165Z,16.73
2018-07-08T05:51:54.253Z,16.47
2018-07-08T05:54:23.515Z,15.40
2018-07-08T05:56:52.775Z,15.67
2018-07-08T05:59:22.019Z,15.23
2018-07-08T06:01:51.158Z,14.87
2018-07-08T06:04:20.510Z,16.13
2018-07-08T06:06:50.131Z,15.13
2018-07-08T06:09:19.034Z,16.57
2018-07-08T06:11:47.830Z,16.03
2018-07-08T06:14:17.044Z,15.60
2018-07-08T06:16:45.897Z,16.10
2018-07-08T06:19:15.107Z,15.50
2018-07-08T06:21:44.322Z,16.30
2018-07-08T06:24:13.532Z,16.67
2018-07-08T06:26:42.251Z,17.60
2018-07-08T06:29:11.553Z,19.03
2018-07-08T06:31:40.728Z,19.07
2018-07-08T06:34:09.986Z,18.03
2018-07-08T06:36:39.154Z,18.43
2018-07-08T06:39:08.378Z,20.80
2018-07-08T06:41:37.576Z,21.37
2018-07-08T06:44:06.633Z,22.60
2018-07-08T06:46:35.693Z,22.03
2018-07-08T06:49:04.751Z,23.47
2018-07-08T06:51:34.006Z,23.20
2018-07-08T06:54:03.312Z,22.17
2018-07-08T06:56:32.276Z,22.67
2018-07-08T06:59:01.711Z,22.27
2018-07-08T07:01:30.658Z,22.00
2018-07-08T07:03:59.968Z,21.23
2018-07-08T07:06:29.179Z,22.00
2018-07-08T07:08:58.351Z,21.30
2018-07-08T07:11:27.599Z,21.57
2018-07-08T07:13:56.543Z,23.00
2018-07-08T07:16:25.427Z,21.33
2018-07-08T07:18:54.540Z,22.90
2018-07-08T07:21:23.758Z,23.63
2018-07-08T07:23:53.059Z,23.07
2018-07-08T07:26:22.398Z,22.70
2018-07-08T07:28:51.295Z,24.10
2018-07-08T07:31:20.637Z,24.27
2018-07-08T07:33:49.836Z,24.37
2018-07-08T07:36:19.082Z,23.57
2018-07-08T07:38:48.188Z,24.70
2018-07-08T07:41:17.242Z,25.50
2018-07-08T07:43:46.209Z,22.93
2018-07-08T07:46:15.130Z,22.63
2018-07-08T07:48:44.203Z,21.90
2018-07-08T07:51:13.039Z,22.00
2018-07-08T07:53:42.271Z,21.00
2018-07-08T07:56:11.227Z,20.50
2018-07-08T07:58:40.111Z,19.03
2018-07-08T08:01:09.530Z,18.60
2018-07-08T08:03:38.306Z,18.90
2018-07-08T08:06:07.584Z,18.77
2018-07-08T08:08:36.956Z,17.40
2018-07-08T08:11:06.069Z,16.00
2018-07-08T08:13:35.274Z,16.10
2018-07-08T08:16:04.347Z,14.50
2018-07-08T08:18:33.495Z,14.40
2018-07-08T08:21:02.799Z,15.10
2018-07-08T08:23:32.123Z,15.60
2018-07-08T08:26:01.026Z,14.17
2018-07-08T08:28:29.984Z,15.27
2018-07-08T08:30:59.182Z,15.27
2018-07-08T08:33:28.776Z,13.87
2018-07-08T08:35:57.931Z,14.13
2018-07-08T08:38:27.219Z,14.13
2018-07-08T08:40:56.408Z,14.23
2018-07-08T08:43:25.611Z,13.33
2018-07-08T08:45:54.447Z,13.70
2018-07-08T08:48:23.647Z,13.17
2018-07-08T08:50:52.790Z,13.10
2018-07-08T08:53:21.938Z,14.00
2018-07-08T08:55:51.541Z,13.00
2018-07-08T08:58:20.630Z,13.90
2018-07-08T09:00:49.680Z,15.60
2018-07-08T09:03:18.558Z,16.20
2018-07-08T09:05:47.680Z,15.57
2018-07-08T09:08:16.965Z,15.47
2018-07-08T09:10:45.790Z,15.80
2018-07-08T09:13:19.355Z,16.13
2018-07-08T09:15:48.535Z,15.07
2018-07-08T09:18:17.834Z,14.50
2018-07-08T09:20:47.094Z,15.87
2018-07-08T09:23:16.199Z,14.80
2018-07-08T09:25:45.297Z,13.37
2018-07-08T09:28:14.481Z,14.10
2018-07-08T09:30:43.557Z,13.20
2018-07-08T09:33:12.511Z,13.23
2018-07-08T09:35:41.647Z,13.63
2018-07-08T09:38:10.887Z,12.97
2018-07-08T09:40:40.104Z,12.53
2018-07-08T09:43:09.167Z,12.10
2018-07-08T09:45:38.252Z,11.90
2018-07-08T09:48:07.446Z,13.60
2018-07-08T09:50:36.625Z,12.43
2018-07-08T09:53:05.975Z,13.23
2018-07-08T09:55:35.243Z,14.07
2018-07-08T09:58:04.573Z,13.80
2018-07-08T10:00:33.326Z,13.47
2018-07-08T10:03:02.458Z,12.83
2018-07-08T10:05:31.300Z,12.60
2018-07-08T10:08:00.333Z,13.13
2018-07-08T10:10:29.517Z,11.77
2018-07-08T10:12:58.789Z,9.43
2018-07-08T10:15:27.569Z,10.40
2018-07-08T10:17:56.766Z,8.73
2018-07-08T10:20:25.960Z,8.07
2018-07-08T10:22:55.050Z,7.87
2018-07-08T10:25:24.255Z,8.77
2018-07-08T10:28:02.732Z,8.53
2018-07-08T10:30:31.995Z,10.00
2018-07-08T10:33:01.165Z,9.93
2018-07-08T10:35:41.055Z,9.37
2018-07-08T10:38:10.419Z,9.77
2018-07-08T10:40:39.705Z,8.47
2018-07-08T10:43:08.726Z,8.37
2018-07-08T10:45:38.036Z,7.93
2018-07-08T10:48:07.922Z,7.93
2018-07-08T10:50:37.204Z,7.37
2018-07-08T10:53:06.467Z,8.17
2018-07-08T10:55:35.615Z,8.30
2018-07-08T10:58:04.433Z,8.43
2018-07-08T11:00:33.476Z,9.60
2018-07-08T11:03:02.771Z,7.07
2018-07-08T11:05:31.778Z,8.17
2018-07-08T11:08:00.794Z,7.20
2018-07-08T11:10:29.993Z,7.43
2018-07-08T11:12:59.046Z,7.00
2018-07-08T11:15:27.954Z,7.23
2018-07-08T11:17:57.279Z,8.33
2018-07-08T11:20:26.262Z,8.03
2018-07-08T11:22:55.202Z,8.53
2018-07-08T11:25:24.279Z,7.97
2018-07-08T11:27:53.347Z,8.93
2018-07-08T11:30:22.566Z,7.40
2018-07-08T11:32:51.568Z,6.37
2018-07-08T11:35:20.750Z,6.97
2018-07-08T11:37:49.836Z,7.23
2018-07-08T11:40:19.049Z,7.03
2018-07-08T11:42:48.195Z,7.13
2018-07-08T11:45:17.449Z,6.60
2018-07-08T11:47:46.423Z,7.63
2018-07-08T11:50:15.673Z,6.75
2018-07-08T11:52:44.702Z,6.33
2018-07-08T11:55:13.634Z,6.80
2018-07-08T11:57:42.601Z,7.25
2018-07-08T12:00:11.802Z,6.62
2018-07-08T12:02:41.207Z,7.67
2018-07-08T12:05:10.266Z,8.00
2018-07-08T12:07:39.418Z,7.90
2018-07-08T12:10:08.625Z,8.43
2018-07-08T12:12:37.650Z,9.40
2018-07-08T12:15:06.966Z,9.90
2018-07-08T12:17:35.992Z,9.93
2018-07-08T12:20:05.275Z,9.57
2018-07-08T12:22:34.456Z,9.43
2018-07-08T12:25:03.592Z,6.47
2018-07-08T12:27:32.769Z,6.60
2018-07-08T12:30:01.590Z,6.40
2018-07-08T12:32:30.846Z,6.33
2018-07-08T12:34:59.955Z,6.67
2018-07-08T12:37:29.049Z,6.30
2018-07-08T12:39:57.971Z,6.50
2018-07-08T12:42:27.163Z,6.17
2018-07-08T12:44:56.370Z,7.23
2018-07-08T12:47:25.599Z,11.50
2018-07-08T12:49:54.741Z,10.53
2018-07-08T12:52:23.710Z,10.67
2018-07-08T12:54:53.622Z,10.33
2018-07-08T12:57:22.671Z,9.87
2018-07-08T12:59:51.950Z,9.47
2018-07-08T13:02:21.260Z,10.07
2018-07-08T13:04:50.623Z,10.60
2018-07-08T13:07:19.486Z,9.60
2018-07-08T13:09:48.574Z,9.07
2018-07-08T13:12:17.922Z,9.77
2018-07-08T13:14:47.138Z,9.13
2018-07-08T13:17:16.435Z,8.90
2018-07-08T13:19:45.394Z,11.10
2018-07-08T13:22:14.336Z,11.00
2018-07-08T13:24:43.486Z,11.43
2018-07-08T13:27:12.319Z,12.60
2018-07-08T13:29:41.279Z,12.17
2018-07-08T13:32:10.436Z,12.57
2018-07-08T13:34:39.489Z,12.80
2018-07-08T13:37:08.585Z,12.13
2018-07-08T13:39:37.878Z,12.73
2018-07-08T13:42:06.675Z,14.87
2018-07-08T13:44:35.892Z,14.77
2018-07-08T13:47:05.212Z,15.00
2018-07-08T13:49:34.878Z,12.10
2018-07-08T13:52:04.205Z,11.60
2018-07-08T13:54:33.330Z,13.57
2018-07-08T13:57:02.429Z,13.17
2018-07-08T13:59:31.514Z,13.43
2018-07-08T14:02:00.743Z,10.93
2018-07-08T14:04:29.656Z,10.37
2018-07-08T14:06:59.129Z,10.57
2018-07-08T14:09:28.319Z,10.87
2018-07-08T14:11:57.574Z,10.20
2018-07-08T14:14:26.700Z,8.80
2018-07-08T14:16:55.826Z,8.67
2018-07-08T14:19:24.980Z,9.07
2018-07-08T14:21:54.267Z,10.40
2018-07-08T14:24:23.200Z,9.00
2018-07-08T14:26:52.576Z,8.60
2018-07-08T14:29:21.667Z,8.37
2018-07-08T14:31:50.797Z,9.33
2018-07-08T14:34:20.047Z,8.40
2018-07-08T14:36:48.963Z,6.90
2018-07-08T14:39:18.073Z,8.03
2018-07-08T14:41:46.922Z,8.17
2018-07-08T14:44:15.879Z,7.33
2018-07-08T14:46:45.216Z,8.13
2018-07-08T14:49:15.122Z,8.47
2018-07-08T14:51:44.018Z,7.93
2018-07-08T14:54:13.010Z,7.33
2018-07-08T14:56:42.240Z,8.00
2018-07-08T14:59:11.346Z,7.40
2018-07-08T15:01:40.843Z,8.00
2018-07-08T15:04:09.817Z,7.27
2018-07-08T15:06:38.993Z,7.47
2018-07-08T15:09:09.911Z,7.70
2018-07-08T15:11:39.139Z,6.97
2018-07-08T15:14:08.596Z,7.40
2018-07-08T15:16:37.787Z,7.70
2018-07-08T15:19:07.427Z,7.90
2018-07-08T15:21:36.425Z,7.20
2018-07-08T15:24:05.553Z,7.00
2018-07-08T15:26:34.796Z,7.57
2018-07-08T15:29:04.008Z,7.60
2018-07-08T15:31:33.262Z,8.07
2018-07-08T15:34:02.401Z,7.43
2018-07-08T15:36:31.458Z,6.77
2018-07-08T15:39:00.715Z,7.20
2018-07-08T15:41:29.678Z,5.60
2018-07-08T15:43:58.631Z,6.00
2018-07-08T15:46:27.993Z,7.00
2018-07-08T15:48:57.157Z,5.50
2018-07-08T15:51:26.225Z,6.07
2018-07-08T15:53:55.259Z,5.67
2018-07-08T15:56:24.459Z,5.60
2018-07-08T15:58:53.692Z,4.97
2018-07-08T16:01:22.843Z,5.20
2018-07-08T16:03:51.998Z,5.00
2018-07-08T16:06:21.306Z,4.40
2018-07-08T16:08:50.523Z,4.93
2018-07-08T16:11:19.532Z,4.80
2018-07-08T16:13:48.462Z,4.53
2018-07-08T16:16:17.470Z,4.67
2018-07-08T16:18:47.324Z,5.17
2018-07-08T16:21:16.558Z,4.83
2018-07-08T16:23:46.399Z,4.67
2018-07-08T16:26:15.534Z,5.87
2018-07-08T16:28:44.868Z,4.57
2018-07-08T16:31:13.664Z,5.23
2018-07-08T16:33:42.821Z,4.90
2018-07-08T16:36:11.813Z,4.83
2018-07-08T16:38:40.674Z,4.73
2018-07-08T16:41:09.807Z,4.87
2018-07-08T16:43:39.152Z,5.30
2018-07-08T16:46:08.445Z,4.97
2018-07-08T16:48:37.810Z,5.20
2018-07-08T16:51:06.802Z,5.37
2018-07-08T16:53:35.790Z,5.40
2018-07-08T16:56:04.921Z,5.90
2018-07-08T16:58:34.223Z,5.73
2018-07-08T17:01:03.545Z,5.20
2018-07-08T17:03:32.775Z,5.27
2018-07-08T17:06:02.035Z,5.10
2018-07-08T17:08:31.243Z,5.53
2018-07-08T17:11:00.496Z,5.20
2018-07-08T17:13:29.730Z,5.20
2018-07-08T17:15:58.672Z,6.07
2018-07-08T17:18:27.789Z,5.30
2018-07-08T17:20:57.018Z,5.13
2018-07-08T17:23:25.989Z,5.30
2018-07-08T17:25:55.116Z,5.90
2018-07-08T17:28:24.442Z,6.80
2018-07-08T17:30:53.294Z,6.13
2018-07-08T17:33:22.665Z,8.03
2018-07-08T17:35:51.855Z,8.60
2018-07-08T17:38:22.092Z,9.83
2018-07-08T17:40:51.450Z,10.33
2018-07-08T17:43:20.356Z,10.20
2018-07-08T17:45:50.157Z,10.00
2018-07-08T17:48:19.282Z,9.43
2018-07-08T17:50:48.513Z,7.87
2018-07-08T17:53:17.676Z,8.90
2018-07-08T17:55:46.494Z,7.60
2018-07-08T17:58:15.792Z,7.10
2018-07-08T18:00:45.054Z,5.83
2018-07-08T18:03:14.393Z,5.73
2018-07-08T18:05:43.344Z,6.43
2018-07-08T18:08:12.297Z,5.47
2018-07-08T18:10:41.662Z,5.20
2018-07-08T18:13:10.629Z,5.37
2018-07-08T18:15:40.391Z,5.80
2018-07-08T18:18:10.898Z,6.60
2018-07-08T18:20:40.211Z,5.80
2018-07-08T18:23:09.132Z,5.20
2018-07-08T18:25:38.355Z,4.50
2018-07-08T18:28:07.543Z,4.70
2018-07-08T18:30:37.395Z,4.40
2018-07-08T18:33:06.976Z,4.03
2018-07-08T18:35:36.325Z,4.40
2018-07-08T18:38:05.823Z,4.67
2018-07-08T18:40:34.910Z,4.73
2018-07-08T18:43:04.243Z,5.33
2018-07-08T18:45:34.570Z,4.80
2018-07-08T18:48:04.090Z,5.50
2018-07-08T18:50:33.179Z,5.33
2018-07-08T18:53:01.939Z,4.93
2018-07-08T18:55:31.122Z,5.17
2018-07-08T18:58:00.564Z,5.47
2018-07-08T19:00:29.919Z,5.47
2018-07-08T19:02:59.803Z,4.93
2018-07-08T19:05:28.708Z,5.00
2018-07-08T19:07:57.742Z,5.10
2018-07-08T19:10:26.823Z,5.17
2018-07-08T19:12:55.963Z,5.80
2018-07-08T19:15:25.218Z,5.70
2018-07-08T19:17:54.533Z,5.57
2018-07-08T19:20:23.775Z,5.33
2018-07-08T19:22:52.981Z,6.17
2018-07-08T19:25:22.189Z,5.50
2018-07-08T19:27:51.119Z,5.70
2018-07-08T19:30:20.110Z,5.60
2018-07-08T19:32:49.531Z,5.13
2018-07-08T19:35:18.716Z,5.77
2018-07-08T19:37:47.813Z,5.90
2018-07-08T19:40:16.854Z,5.90
2018-07-08T19:42:46.165Z,6.20
2018-07-08T19:45:15.403Z,5.50
2018-07-08T19:47:44.762Z,5.10
2018-07-08T19:50:13.535Z,5.53
2018-07-08T19:52:42.798Z,5.37
2018-07-08T19:55:12.082Z,5.97
2018-07-08T19:57:41.142Z,5.80
2018-07-08T20:00:10.516Z,6.03
2018-07-08T20:02:39.634Z,5.27
2018-07-08T20:05:08.918Z,5.67
2018-07-08T20:07:38.353Z,6.13
2018-07-08T20:10:07.352Z,5.60
2018-07-08T20:12:36.648Z,5.97
2018-07-08T20:15:05.944Z,6.03
2018-07-08T20:17:35.749Z,6.67
2018-07-08T20:20:04.980Z,6.80
2018-07-08T20:22:33.966Z,6.80
2018-07-08T20:25:02.742Z,6.17
2018-07-08T20:27:31.693Z,6.73
2018-07-08T20:30:00.851Z,5.80
2018-07-08T20:32:30.136Z,6.27
2018-07-08T20:34:59.754Z,5.83
2018-07-08T20:37:29.045Z,5.63
2018-07-08T20:39:58.225Z,6.10
2018-07-08T20:42:27.346Z,6.10
2018-07-08T20:44:56.589Z,5.70
2018-07-08T20:47:25.827Z,6.10
2018-07-08T20:49:54.987Z,5.87
2018-07-08T20:52:24.167Z,6.30
2018-07-08T20:54:53.443Z,5.53
2018-07-08T20:57:22.656Z,5.63
2018-07-08T20:59:52.278Z,5.80
2018-07-08T21:02:21.429Z,5.53
2018-07-08T21:04:50.403Z,5.30
2018-07-08T21:07:19.740Z,5.70
2018-07-08T21:09:48.954Z,6.07
2018-07-08T21:12:18.226Z,5.30
2018-07-08T21:14:47.683Z,5.60
2018-07-08T21:17:16.838Z,5.37
2018-07-08T21:19:45.998Z,5.67
2018-07-08T21:22:15.358Z,5.20
2018-07-08T21:24:44.660Z,5.33
2018-07-08T21:27:13.749Z,5.13
2018-07-08T21:29:42.834Z,5.13
2018-07-08T21:32:12.050Z,5.60
2018-07-08T21:34:41.350Z,5.03
2018-07-08T21:37:10.647Z,5.30
2018-07-08T21:39:39.804Z,5.30
2018-07-08T21:42:09.043Z,4.87
2018-07-08T21:44:38.674Z,4.97
2018-07-08T21:47:07.632Z,5.20
2018-07-08T21:49:36.663Z,4.97
2018-07-08T21:52:05.692Z,5.50
2018-07-08T21:54:34.857Z,5.20
2018-07-08T21:57:03.833Z,7.50
2018-07-08T21:59:33.123Z,4.60
2018-07-08T22:02:04.760Z,5.27
2018-07-08T22:04:34.122Z,5.50
2018-07-08T22:07:08.162Z,5.67
2018-07-08T22:09:36.983Z,4.87
2018-07-08T22:12:06.261Z,5.03
2018-07-08T22:14:35.419Z,5.33
2018-07-08T22:17:04.648Z,5.40
2018-07-08T22:19:33.692Z,5.13
2018-07-08T22:22:03.285Z,5.87
2018-07-08T22:24:32.748Z,5.17
2018-07-08T22:27:01.878Z,5.87
2018-07-08T22:29:31.148Z,5.40
2018-07-08T22:32:00.499Z,6.10
2018-07-08T22:34:29.592Z,5.23
2018-07-08T22:36:58.782Z,5.00
2018-07-08T22:39:27.947Z,5.20
2018-07-08T22:41:57.217Z,5.27
2018-07-08T22:44:26.532Z,5.67
2018-07-08T22:46:55.794Z,5.60
2018-07-08T22:49:24.858Z,5.93
2018-07-08T22:51:53.964Z,5.57
2018-07-08T22:54:23.158Z,6.00
2018-07-08T22:56:51.927Z,6.47
2018-07-08T22:59:20.906Z,6.70
2018-07-08T23:03:03.600Z,6.73
2018-07-08T23:05:32.564Z,7.00
2018-07-08T23:08:01.643Z,7.00
2018-07-08T23:10:31.074Z,7.10
2018-07-08T23:13:00.374Z,6.90
2018-07-08T23:15:29.437Z,7.27
2018-07-08T23:17:58.731Z,6.17
2018-07-08T23:20:28.070Z,6.80
2018-07-08T23:22:59.306Z,6.87
2018-07-08T23:25:28.282Z,6.90
2018-07-08T23:27:57.742Z,6.93
2018-07-08T23:30:26.826Z,6.90
2018-07-08T23:32:55.790Z,7.17
2018-07-08T23:35:24.714Z,6.53
2018-07-08T23:37:54.376Z,6.53
2018-07-08T23:40:23.571Z,6.90
2018-07-08T23:42:52.938Z,6.30
2018-07-08T23:45:21.878Z,6.73
2018-07-08T23:47:50.703Z,6.40
2018-07-08T23:50:19.942Z,6.07
2018-07-08T23:52:49.275Z,6.10
2018-07-08T23:55:18.488Z,6.33
2018-07-08T23:57:47.660Z,7.00
